FR-0244 weather

Societe des Eaux Minerales D'Evian Heliport
Amphion, Auvergne-Rhône-Alpes, France

Public forecast

Using degrees Celsius for public forecast. Weather courtesy of forecast.io.

Closest aviation weather report (METAR) to Societe des Eaux Minerales D'Evian Heliport

Closest report is Geneva Cointrin International Airport, 19.1 nm (35.3 km) WSW. Retrieved 2019/11/20 23:20 UTC (4 minutes ago):

LSGG 202320Z AUTO VRB02KT 9999 OVC014 05/02 Q1011 NOSIG

Closest aviation forecast (TAF) to Societe des Eaux Minerales D'Evian Heliport

Closest forecast is Geneva Cointrin International Airport, 19.1 nm (35.3 km) WSW. Retrieved 2019/11/20 21:36 UTC (2 hours ago):

TAF LSGG 202025Z 2021/2203 VRB02KT 9999 BKN018 TX07/2114Z TN03/2106Z PROB30 TEMPO 2110/2115 SCT070